Eagle Mills, New York
Current Conditions -  °F | °C
As of 10:51 PM on Friday 24 Oct 2014 (Local Time) from KALB Reporting Station
Moderate Fog Moderate Fog  
Wind Chill: 45°   Ceiling: 4400
Heat Index: 47°   Visibility: 10mi
Dew Point: 44°   Wind: 5mph
Humidity: 90%   Direction: 360°N
Pressure: 29.87"   Gusts: NA
Location:  42.7478°N, 73.6049°W
Report Text: KALB 250251Z 36004KT 10SM VCFG OVC044 08/07 A2987 RMK AO2 SLP116 VCFG E T00830067 51005 $
Loading
Personal Weather Stations






























Interactive Weather Map
Tropical Storm Tracking
New forecast layout! Learn more

10-Day Weather Forecast

Advertisements
Track Severe Weather on mobile